createdAt,value
2022-11-16T00:02:51.852Z,9.65
2022-11-16T00:05:59.042Z,9.67
2022-11-16T00:09:20.941Z,9.69
2022-11-16T00:12:23.216Z,9.63
2022-11-16T00:15:25.485Z,9.66
2022-11-16T00:18:28.457Z,9.45
2022-11-16T00:21:31.216Z,9.62
2022-11-16T00:24:33.554Z,9.68
2022-11-16T00:27:35.814Z,9.57
2022-11-16T00:30:38.588Z,9.61
2022-11-16T00:33:41.068Z,9.60
2022-11-16T00:36:43.461Z,9.69
2022-11-16T00:39:45.758Z,9.72
2022-11-16T00:42:48.315Z,9.69
2022-11-16T00:45:50.622Z,9.72
2022-11-16T00:48:53.065Z,9.66
2022-11-16T00:51:55.516Z,9.65
2022-11-16T00:54:58.036Z,9.65
2022-11-16T00:58:00.549Z,9.71
2022-11-16T01:01:06.019Z,9.76
2022-11-16T01:04:08.349Z,9.81
2022-11-16T01:07:11.567Z,9.75
2022-11-16T01:10:17.389Z,9.75
2022-11-16T01:13:19.742Z,9.71
2022-11-16T01:16:23.496Z,9.74
2022-11-16T01:19:25.913Z,9.64
2022-11-16T01:22:28.168Z,9.68
2022-11-16T01:25:30.444Z,9.60
2022-11-16T01:28:33.423Z,9.71
2022-11-16T01:31:36.459Z,9.65
2022-11-16T01:34:40.163Z,9.59
2022-11-16T01:38:05.044Z,9.65
2022-11-16T01:41:09.772Z,9.69
2022-11-16T01:44:15.126Z,9.73
2022-11-16T01:47:28.878Z,9.71
2022-11-16T01:50:34.168Z,9.76
2022-11-16T01:53:37.214Z,9.69
2022-11-16T01:56:40.329Z,9.77
2022-11-16T01:59:48.009Z,9.79
2022-11-16T02:02:54.769Z,9.76
2022-11-16T02:06:26.315Z,9.80
2022-11-16T02:10:23.189Z,9.75
2022-11-16T02:13:51.497Z,9.77
2022-11-16T02:17:31.128Z,9.77
2022-11-16T02:21:13.547Z,9.78
2022-11-16T02:24:34.667Z,9.73
2022-11-16T02:27:55.489Z,9.78
2022-11-16T02:31:00.714Z,9.72
2022-11-16T02:34:05.430Z,9.76
2022-11-16T02:37:08.192Z,9.72
2022-11-16T02:40:12.433Z,9.79
2022-11-16T02:43:26.492Z,9.81
2022-11-16T02:46:32.372Z,9.81
2022-11-16T02:49:37.075Z,9.75
2022-11-16T02:52:39.374Z,9.78
2022-11-16T02:55:44.517Z,9.79
2022-11-16T02:58:47.459Z,9.78
2022-11-16T03:01:57.903Z,9.84
2022-11-16T03:05:19.398Z,9.78
2022-11-16T03:08:32.692Z,9.83
2022-11-16T03:11:59.434Z,9.79
2022-11-16T03:15:07.318Z,9.74
2022-11-16T03:18:10.321Z,9.74
2022-11-16T03:21:30.450Z,9.75
2022-11-16T03:24:33.007Z,9.79
2022-11-16T03:28:15.457Z,9.80
2022-11-16T03:31:27.021Z,9.88
2022-11-16T03:34:33.091Z,9.90
2022-11-16T03:37:36.122Z,9.87
2022-11-16T03:40:39.410Z,9.85
2022-11-16T03:43:42.635Z,9.82
2022-11-16T03:46:45.816Z,9.83
2022-11-16T03:49:49.644Z,9.89
2022-11-16T03:52:54.348Z,9.78
2022-11-16T03:55:56.964Z,9.78
2022-11-16T03:58:59.349Z,9.82
2022-11-16T04:02:01.826Z,9.81
2022-11-16T04:05:22.702Z,9.83
2022-11-16T04:08:43.424Z,9.84
2022-11-16T04:12:06.246Z,9.85
2022-11-16T04:15:28.705Z,9.85
2022-11-16T04:18:49.692Z,9.78
2022-11-16T04:22:35.805Z,9.80
2022-11-16T04:25:40.711Z,9.82
2022-11-16T04:28:50.102Z,9.76
2022-11-16T04:32:11.243Z,9.66
2022-11-16T04:35:32.651Z,9.63
2022-11-16T04:38:35.349Z,9.71
2022-11-16T04:41:57.037Z,9.75
2022-11-16T04:45:19.316Z,9.70
2022-11-16T04:48:25.768Z,9.83
2022-11-16T04:51:29.933Z,9.77
2022-11-16T04:54:33.446Z,9.98
2022-11-16T04:57:35.756Z,9.96
2022-11-16T05:00:39.283Z,9.79
2022-11-16T05:03:41.604Z,9.86
2022-11-16T05:06:44.185Z,9.80
2022-11-16T05:09:48.470Z,9.81
2022-11-16T05:12:51.891Z,9.71
2022-11-16T05:15:54.457Z,9.63
2022-11-16T05:19:15.369Z,9.67
2022-11-16T05:22:17.754Z,9.65
2022-11-16T05:25:20.342Z,9.80
2022-11-16T05:28:23.055Z,9.75
2022-11-16T05:31:25.394Z,9.66
2022-11-16T05:34:28.491Z,9.72
2022-11-16T05:37:31.099Z,9.77
2022-11-16T05:40:34.270Z,9.85
2022-11-16T05:43:36.749Z,10.12
2022-11-16T05:46:53.831Z,10.42
2022-11-16T05:49:56.928Z,10.32
2022-11-16T05:53:01.468Z,10.21
2022-11-16T05:56:04.605Z,10.30
2022-11-16T05:59:16.511Z,10.37
2022-11-16T06:02:19.993Z,10.18
2022-11-16T06:05:23.565Z,10.09
2022-11-16T06:08:26.465Z,10.11
2022-11-16T06:11:35.551Z,9.98
2022-11-16T06:14:39.077Z,9.95
2022-11-16T06:17:41.440Z,9.89
2022-11-16T06:20:45.536Z,9.86
2022-11-16T06:23:48.304Z,9.98
2022-11-16T06:26:50.642Z,9.92
2022-11-16T06:29:53.415Z,9.99
2022-11-16T06:32:56.996Z,10.01
2022-11-16T06:35:59.512Z,9.96
2022-11-16T06:39:02.173Z,9.90
2022-11-16T06:42:08.581Z,10.05
2022-11-16T06:45:11.137Z,10.02
2022-11-16T06:48:17.987Z,10.03
2022-11-16T06:51:21.082Z,10.02
2022-11-16T06:54:23.656Z,10.04
2022-11-16T06:57:26.020Z,10.01
2022-11-16T07:00:28.460Z,9.95
2022-11-16T07:03:31.864Z,9.98
2022-11-16T07:06:35.952Z,10.18
2022-11-16T07:09:39.388Z,10.42
2022-11-16T07:12:41.810Z,10.64
2022-11-16T07:15:44.220Z,10.93
2022-11-16T07:18:46.531Z,10.81
2022-11-16T07:21:49.605Z,10.59
2022-11-16T07:24:54.093Z,10.42
2022-11-16T07:27:58.840Z,10.27
2022-11-16T07:31:06.408Z,10.31
2022-11-16T07:34:09.013Z,10.21
2022-11-16T07:37:20.036Z,10.16
2022-11-16T07:40:23.109Z,10.16
2022-11-16T07:43:25.658Z,10.16
2022-11-16T07:46:47.127Z,10.08
2022-11-16T07:49:51.224Z,10.08
2022-11-16T07:52:56.638Z,10.19
2022-11-16T07:55:59.048Z,10.19
2022-11-16T07:59:03.090Z,10.15
2022-11-16T08:02:11.002Z,10.15
2022-11-16T08:05:15.581Z,10.31
2022-11-16T08:08:17.937Z,10.27
2022-11-16T08:11:20.652Z,10.26
2022-11-16T08:14:23.217Z,10.20
2022-11-16T08:17:28.415Z,10.22
2022-11-16T08:20:31.496Z,10.26
2022-11-16T08:23:34.928Z,10.29
2022-11-16T08:26:38.250Z,10.18
2022-11-16T08:29:44.992Z,10.34
2022-11-16T08:32:48.490Z,10.26
2022-11-16T08:35:52.517Z,10.28
2022-11-16T08:38:55.072Z,10.23
2022-11-16T08:41:59.752Z,10.16
2022-11-16T08:45:02.013Z,10.24
2022-11-16T08:48:05.639Z,10.33
2022-11-16T08:51:18.010Z,10.32
2022-11-16T08:54:29.031Z,10.33
2022-11-16T08:57:31.736Z,10.25
2022-11-16T09:00:38.495Z,10.39
2022-11-16T09:03:41.252Z,10.49
2022-11-16T09:06:43.458Z,10.33
2022-11-16T09:09:45.769Z,10.40
2022-11-16T09:12:48.102Z,10.41
2022-11-16T09:15:57.453Z,10.49
2022-11-16T09:18:59.765Z,10.45
2022-11-16T09:22:02.061Z,10.45
2022-11-16T09:25:04.929Z,10.45
2022-11-16T09:28:08.619Z,10.46
2022-11-16T09:31:10.973Z,10.48
2022-11-16T09:34:13.319Z,10.46
2022-11-16T09:37:15.628Z,10.49
2022-11-16T09:40:17.985Z,10.53
2022-11-16T09:43:42.475Z,10.61
2022-11-16T09:46:53.091Z,10.61
2022-11-16T09:50:03.884Z,10.66
2022-11-16T09:53:15.076Z,10.75
2022-11-16T09:56:22.824Z,10.67
2022-11-16T09:59:27.682Z,10.74
2022-11-16T10:02:42.635Z,10.73
2022-11-16T10:06:03.373Z,10.77
2022-11-16T10:09:05.769Z,10.74
2022-11-16T10:12:46.380Z,10.66
2022-11-16T10:15:55.291Z,10.54
2022-11-16T10:19:08.113Z,10.63
2022-11-16T10:22:22.636Z,10.57
2022-11-16T10:25:51.605Z,10.63
2022-11-16T10:28:59.887Z,10.66
2022-11-16T10:32:13.048Z,10.76
2022-11-16T10:35:31.026Z,10.71
2022-11-16T10:38:33.492Z,10.67
2022-11-16T10:41:39.562Z,10.61
2022-11-16T10:44:44.888Z,10.66
2022-11-16T10:47:56.950Z,10.73
2022-11-16T10:50:59.183Z,10.91
2022-11-16T10:54:01.436Z,10.97
2022-11-16T10:57:06.075Z,11.00
2022-11-16T11:00:12.864Z,10.99
2022-11-16T11:03:30.283Z,10.90
2022-11-16T11:06:33.681Z,10.88
2022-11-16T11:09:37.783Z,10.87
2022-11-16T11:13:08.143Z,11.02
2022-11-16T11:16:16.326Z,11.00
2022-11-16T11:19:28.672Z,10.90
2022-11-16T11:22:33.084Z,10.94
2022-11-16T11:25:37.485Z,11.03
2022-11-16T11:28:46.926Z,11.11
2022-11-16T11:31:51.573Z,11.00
2022-11-16T11:34:54.739Z,10.95
2022-11-16T11:38:04.763Z,10.98
2022-11-16T11:41:18.665Z,11.03
2022-11-16T11:44:20.917Z,10.90
2022-11-16T11:47:57.229Z,10.98
2022-11-16T11:51:37.278Z,11.02
2022-11-16T11:54:46.057Z,11.01
2022-11-16T11:57:51.043Z,11.10
2022-11-16T12:01:36.495Z,11.18
2022-11-16T12:05:09.445Z,11.14
2022-11-16T12:08:35.816Z,11.00
2022-11-16T12:11:48.578Z,10.92
2022-11-16T12:14:50.846Z,10.94
2022-11-16T12:18:02.847Z,10.86
2022-11-16T12:21:19.765Z,10.92
2022-11-16T12:25:00.732Z,10.95
2022-11-16T12:28:24.272Z,11.07
2022-11-16T12:31:59.121Z,11.02
2022-11-16T12:35:13.675Z,11.04
2022-11-16T12:38:26.653Z,11.07
2022-11-16T12:41:29.000Z,11.10
2022-11-16T12:44:55.630Z,11.41
2022-11-16T12:48:10.217Z,11.40
2022-11-16T12:51:27.520Z,11.53
2022-11-16T12:55:31.843Z,11.44
2022-11-16T12:58:24.511Z,11.36
2022-11-16T13:01:41.892Z,11.35
2022-11-16T13:05:05.741Z,11.38
2022-11-16T13:08:43.765Z,11.28
2022-11-16T13:11:50.678Z,11.24
2022-11-16T13:14:55.138Z,11.15
2022-11-16T13:18:00.556Z,11.18
2022-11-16T13:21:12.597Z,11.20
2022-11-16T13:24:27.203Z,11.26
2022-11-16T13:27:45.426Z,11.22
2022-11-16T13:31:29.356Z,11.06
2022-11-16T13:34:33.130Z,11.16
2022-11-16T13:37:38.548Z,11.21
2022-11-16T13:40:41.467Z,11.15
2022-11-16T13:43:48.851Z,11.17
2022-11-16T13:46:56.122Z,11.25
2022-11-16T13:50:01.531Z,11.23
2022-11-16T13:56:50.193Z,11.26
2022-11-16T14:00:20.456Z,11.16
2022-11-16T14:03:22.961Z,11.51
2022-11-16T14:06:25.212Z,11.91
2022-11-16T14:09:44.576Z,11.88
2022-11-16T14:12:52.793Z,11.73
2022-11-16T14:16:20.335Z,11.56
2022-11-16T14:19:44.660Z,11.55
2022-11-16T14:23:20.827Z,11.38
2022-11-16T14:26:45.290Z,11.40
2022-11-16T14:30:00.757Z,11.27
2022-11-16T14:33:03.131Z,11.21
2022-11-16T14:36:08.158Z,11.11
2022-11-16T14:39:14.804Z,11.12
2022-11-16T14:42:22.925Z,11.09
2022-11-16T14:45:28.760Z,11.03
2022-11-16T14:48:31.113Z,11.10
2022-11-16T14:51:36.040Z,11.05
2022-11-16T14:58:17.818Z,10.99
2022-11-16T15:01:44.964Z,11.06
2022-11-16T15:04:49.268Z,11.01
2022-11-16T15:08:01.692Z,11.01
2022-11-16T15:11:07.616Z,11.10
2022-11-16T15:14:09.923Z,11.16
2022-11-16T15:17:20.608Z,11.11
2022-11-16T15:20:24.652Z,10.98
2022-11-16T15:23:30.661Z,10.88
2022-11-16T15:26:33.269Z,10.91
2022-11-16T15:29:35.761Z,10.91
2022-11-16T15:32:44.291Z,10.84
2022-11-16T15:35:47.409Z,10.73
2022-11-16T15:38:51.471Z,10.69
2022-11-16T15:41:58.914Z,10.74
2022-11-16T15:45:15.535Z,10.71
2022-11-16T15:48:23.193Z,10.76
2022-11-16T15:51:27.541Z,10.71
2022-11-16T15:54:54.690Z,10.63
2022-11-16T15:58:07.300Z,10.55
2022-11-16T16:01:11.316Z,10.53
2022-11-16T16:04:18.220Z,10.63
2022-11-16T16:07:40.863Z,10.64
2022-11-16T16:10:43.500Z,10.73
2022-11-16T16:13:58.601Z,10.69
2022-11-16T16:17:00.960Z,10.68
2022-11-16T16:20:05.198Z,10.74
2022-11-16T16:23:17.619Z,10.59
2022-11-16T16:26:21.730Z,10.59
2022-11-16T16:29:26.445Z,10.66
2022-11-16T16:32:30.591Z,10.69
2022-11-16T16:35:32.873Z,10.81
2022-11-16T16:38:35.397Z,11.00
2022-11-16T16:41:37.733Z,11.10
2022-11-16T16:44:40.816Z,11.08
2022-11-16T16:47:43.087Z,10.82
2022-11-16T16:50:45.452Z,10.73
2022-11-16T16:53:47.735Z,10.52
2022-11-16T16:56:50.124Z,10.57
2022-11-16T16:59:52.394Z,10.53
2022-11-16T17:02:54.648Z,10.48
2022-11-16T17:06:01.935Z,10.50
2022-11-16T17:09:04.676Z,10.43
2022-11-16T17:12:06.994Z,10.42
2022-11-16T17:15:09.678Z,10.37
2022-11-16T17:18:12.118Z,10.47
2022-11-16T17:21:14.436Z,10.48
2022-11-16T17:24:16.763Z,10.54
2022-11-16T17:27:19.248Z,10.55
2022-11-16T17:30:21.587Z,10.48
2022-11-16T17:33:24.217Z,10.51
2022-11-16T17:36:26.536Z,10.51
2022-11-16T17:39:28.822Z,10.50
2022-11-16T17:42:32.863Z,10.54
2022-11-16T17:45:35.152Z,10.48
2022-11-16T17:48:38.686Z,10.54
2022-11-16T17:51:40.915Z,10.39
2022-11-16T17:54:43.243Z,10.51
2022-11-16T17:57:45.518Z,10.52
2022-11-16T18:00:51.887Z,10.57
2022-11-16T18:03:54.378Z,10.43
2022-11-16T18:06:56.756Z,10.51
2022-11-16T18:09:59.455Z,10.43
2022-11-16T18:13:01.731Z,10.66
2022-11-16T18:16:11.127Z,10.64
2022-11-16T18:19:18.320Z,10.65
2022-11-16T18:22:20.627Z,10.64
2022-11-16T18:25:24.566Z,10.61
2022-11-16T18:28:27.014Z,10.69
2022-11-16T18:31:29.936Z,10.69
2022-11-16T18:34:32.466Z,10.68
2022-11-16T18:37:34.901Z,10.62
2022-11-16T18:40:37.166Z,10.59
2022-11-16T18:43:43.309Z,10.64
2022-11-16T18:46:45.655Z,10.61
2022-11-16T18:49:47.951Z,10.58
2022-11-16T18:52:50.254Z,10.53
2022-11-16T18:55:57.687Z,10.49
2022-11-16T18:59:00.500Z,10.57
2022-11-16T19:02:02.718Z,10.60
2022-11-16T19:05:05.538Z,10.69
2022-11-16T19:08:07.821Z,10.68
2022-11-16T19:11:12.090Z,10.57
2022-11-16T19:14:14.453Z,10.57
2022-11-16T19:17:16.879Z,10.43
2022-11-16T19:20:19.295Z,10.45
2022-11-16T19:23:21.595Z,10.52
2022-11-16T19:26:26.432Z,10.48
2022-11-16T19:29:28.705Z,10.60
2022-11-16T19:32:32.210Z,10.43
2022-11-16T19:35:34.487Z,10.61
2022-11-16T19:38:37.124Z,10.65
2022-11-16T19:41:39.435Z,10.55
2022-11-16T19:44:41.816Z,10.58
2022-11-16T19:47:44.710Z,10.61
2022-11-16T19:50:47.079Z,10.57
2022-11-16T19:53:49.775Z,10.67
2022-11-16T19:56:55.089Z,10.53
2022-11-16T20:00:00.405Z,10.56
2022-11-16T20:03:02.763Z,10.53
2022-11-16T20:06:10.335Z,10.56
2022-11-16T20:09:13.025Z,10.59
2022-11-16T20:12:15.413Z,10.51
2022-11-16T20:15:17.878Z,10.36
2022-11-16T20:18:20.176Z,10.44
2022-11-16T20:21:39.806Z,10.49
2022-11-16T20:24:42.096Z,10.46
2022-11-16T20:27:44.404Z,10.58
2022-11-16T20:30:47.732Z,10.54
2022-11-16T20:34:00.336Z,10.54
2022-11-16T20:37:02.721Z,10.41
2022-11-16T20:40:05.583Z,10.51
2022-11-16T20:43:09.143Z,10.58
2022-11-16T20:46:13.575Z,10.67
2022-11-16T20:49:16.090Z,10.51
2022-11-16T20:52:18.389Z,10.62
2022-11-16T20:55:21.099Z,10.55
2022-11-16T20:58:24.220Z,10.49
2022-11-16T21:01:34.119Z,10.51
2022-11-16T21:04:36.490Z,10.58
2022-11-16T21:07:41.800Z,10.57
2022-11-16T21:10:44.831Z,10.67
2022-11-16T21:14:06.288Z,10.40
2022-11-16T21:17:08.605Z,10.49
2022-11-16T21:20:28.140Z,10.60
2022-11-16T21:23:32.598Z,10.64
2022-11-16T21:26:35.472Z,10.53
2022-11-16T21:29:37.659Z,10.32
2022-11-16T21:32:39.918Z,10.25
2022-11-16T21:35:42.196Z,10.21
2022-11-16T21:38:44.730Z,10.34
2022-11-16T21:41:46.985Z,10.36
2022-11-16T21:44:49.280Z,10.43
2022-11-16T21:47:51.506Z,10.55
2022-11-16T21:51:01.385Z,10.54
2022-11-16T21:54:03.735Z,10.56
2022-11-16T21:57:05.984Z,10.45
2022-11-16T22:00:08.807Z,10.53
2022-11-16T22:03:13.906Z,10.56
2022-11-16T22:06:51.545Z,10.55
2022-11-16T22:09:53.846Z,10.57
2022-11-16T22:12:56.084Z,10.37
2022-11-16T22:15:58.588Z,10.51
2022-11-16T22:19:00.846Z,10.52
2022-11-16T22:22:03.112Z,10.48
2022-11-16T22:25:05.946Z,10.56
2022-11-16T22:28:20.522Z,10.47
2022-11-16T22:31:23.404Z,10.54
2022-11-16T22:34:25.707Z,10.48
2022-11-16T22:37:27.980Z,10.53
2022-11-16T22:40:30.507Z,10.46
2022-11-16T22:43:33.409Z,10.38
2022-11-16T22:46:36.017Z,10.38
2022-11-16T22:49:38.338Z,10.54
2022-11-16T22:52:40.610Z,10.46
2022-11-16T22:55:42.908Z,10.35
2022-11-16T22:58:45.239Z,10.39
2022-11-16T23:01:47.489Z,10.35
2022-11-16T23:04:49.745Z,10.48
2022-11-16T23:07:52.082Z,10.57
2022-11-16T23:11:17.512Z,10.57
2022-11-16T23:14:38.406Z,10.37
2022-11-16T23:17:40.687Z,10.35
2022-11-16T23:21:01.435Z,10.26
2022-11-16T23:24:22.334Z,10.30
2022-11-16T23:27:31.455Z,10.42
2022-11-16T23:30:34.894Z,10.51
2022-11-16T23:33:46.230Z,10.41
2022-11-16T23:36:48.448Z,10.34
2022-11-16T23:39:50.675Z,10.43
2022-11-16T23:43:12.595Z,10.51
2022-11-16T23:46:14.868Z,10.53
2022-11-16T23:49:17.126Z,10.54
2022-11-16T23:52:19.412Z,10.49
2022-11-16T23:55:23.192Z,10.54
2022-11-16T23:58:25.466Z,10.43
